sensor_id;sensor_type;location;lat;lon;timestamp;P1;durP1;ratioP1;P2;durP2;ratioP2
3293;SDS011;1659;51.470;6.770;2023-04-03T00:01:06;29.97;;;18.10;;
3293;SDS011;1659;51.470;6.770;2023-04-03T00:03:33;28.97;;;17.63;;
3293;SDS011;1659;51.470;6.770;2023-04-03T00:06:00;27.73;;;16.67;;
3293;SDS011;1659;51.470;6.770;2023-04-03T00:08:27;26.23;;;16.67;;
3293;SDS011;1659;51.470;6.770;2023-04-03T00:10:55;27.00;;;17.30;;
3293;SDS011;1659;51.470;6.770;2023-04-03T00:13:22;31.83;;;16.87;;
3293;SDS011;1659;51.470;6.770;2023-04-03T00:15:48;26.30;;;16.47;;
3293;SDS011;1659;51.470;6.770;2023-04-03T00:18:16;28.93;;;17.37;;
3293;SDS011;1659;51.470;6.770;2023-04-03T00:20:43;26.93;;;17.43;;
3293;SDS011;1659;51.470;6.770;2023-04-03T00:23:10;28.40;;;17.03;;
3293;SDS011;1659;51.470;6.770;2023-04-03T00:25:36;30.33;;;17.00;;
3293;SDS011;1659;51.470;6.770;2023-04-03T00:28:03;23.40;;;16.00;;
3293;SDS011;1659;51.470;6.770;2023-04-03T00:30:30;25.43;;;15.17;;
3293;SDS011;1659;51.470;6.770;2023-04-03T00:32:57;26.20;;;16.60;;
3293;SDS011;1659;51.470;6.770;2023-04-03T00:35:27;31.40;;;16.60;;
3293;SDS011;1659;51.470;6.770;2023-04-03T00:37:55;22.90;;;16.90;;
3293;SDS011;1659;51.470;6.770;2023-04-03T00:40:23;27.57;;;17.53;;
3293;SDS011;1659;51.470;6.770;2023-04-03T00:42:53;27.60;;;16.80;;
3293;SDS011;1659;51.470;6.770;2023-04-03T00:45:25;29.33;;;17.87;;
3293;SDS011;1659;51.470;6.770;2023-04-03T00:48:03;27.70;;;18.00;;
3293;SDS011;1659;51.470;6.770;2023-04-03T00:50:33;29.90;;;18.60;;
3293;SDS011;1659;51.470;6.770;2023-04-03T00:53:03;29.23;;;18.47;;
3293;SDS011;1659;51.470;6.770;2023-04-03T00:55:31;33.27;;;19.90;;
3293;SDS011;1659;51.470;6.770;2023-04-03T00:57:58;29.20;;;17.77;;
3293;SDS011;1659;51.470;6.770;2023-04-03T01:00:26;37.80;;;19.47;;
3293;SDS011;1659;51.470;6.770;2023-04-03T01:02:53;33.37;;;19.77;;
3293;SDS011;1659;51.470;6.770;2023-04-03T01:05:20;32.13;;;19.60;;
3293;SDS011;1659;51.470;6.770;2023-04-03T01:07:49;32.10;;;19.67;;
3293;SDS011;1659;51.470;6.770;2023-04-03T01:10:18;28.50;;;17.77;;
3293;SDS011;1659;51.470;6.770;2023-04-03T01:12:46;27.57;;;18.13;;
3293;SDS011;1659;51.470;6.770;2023-04-03T01:15:15;32.07;;;18.67;;
3293;SDS011;1659;51.470;6.770;2023-04-03T01:17:44;30.73;;;18.93;;
3293;SDS011;1659;51.470;6.770;2023-04-03T01:20:21;37.10;;;17.70;;
3293;SDS011;1659;51.470;6.770;2023-04-03T01:23:24;28.20;;;17.10;;
3293;SDS011;1659;51.470;6.770;2023-04-03T01:25:56;31.83;;;18.97;;
3293;SDS011;1659;51.470;6.770;2023-04-03T01:28:24;27.30;;;17.20;;
3293;SDS011;1659;51.470;6.770;2023-04-03T01:30:53;28.53;;;16.53;;
3293;SDS011;1659;51.470;6.770;2023-04-03T01:33:28;27.20;;;17.27;;
3293;SDS011;1659;51.470;6.770;2023-04-03T01:35:55;25.77;;;17.50;;
3293;SDS011;1659;51.470;6.770;2023-04-03T01:38:21;29.30;;;17.93;;
3293;SDS011;1659;51.470;6.770;2023-04-03T01:40:48;27.73;;;15.97;;
3293;SDS011;1659;51.470;6.770;2023-04-03T01:43:14;25.90;;;14.90;;
3293;SDS011;1659;51.470;6.770;2023-04-03T01:45:41;23.87;;;14.73;;
3293;SDS011;1659;51.470;6.770;2023-04-03T01:48:07;19.67;;;13.90;;
3293;SDS011;1659;51.470;6.770;2023-04-03T01:50:35;22.10;;;14.23;;
3293;SDS011;1659;51.470;6.770;2023-04-03T01:53:02;23.30;;;14.80;;
3293;SDS011;1659;51.470;6.770;2023-04-03T01:55:28;20.10;;;12.23;;
3293;SDS011;1659;51.470;6.770;2023-04-03T01:57:55;22.83;;;12.80;;
3293;SDS011;1659;51.470;6.770;2023-04-03T02:00:21;21.37;;;13.77;;
3293;SDS011;1659;51.470;6.770;2023-04-03T02:02:48;16.23;;;12.13;;
3293;SDS011;1659;51.470;6.770;2023-04-03T02:05:15;23.23;;;12.23;;
3293;SDS011;1659;51.470;6.770;2023-04-03T02:07:43;13.70;;;10.87;;
3293;SDS011;1659;51.470;6.770;2023-04-03T02:10:09;23.60;;;13.27;;
3293;SDS011;1659;51.470;6.770;2023-04-03T02:12:36;20.60;;;11.30;;
3293;SDS011;1659;51.470;6.770;2023-04-03T02:15:03;20.70;;;10.60;;
3293;SDS011;1659;51.470;6.770;2023-04-03T02:17:30;19.67;;;11.30;;
3293;SDS011;1659;51.470;6.770;2023-04-03T02:19:57;16.13;;;9.73;;
3293;SDS011;1659;51.470;6.770;2023-04-03T02:22:23;16.67;;;10.13;;
3293;SDS011;1659;51.470;6.770;2023-04-03T02:24:51;20.07;;;11.03;;
3293;SDS011;1659;51.470;6.770;2023-04-03T02:27:18;16.47;;;9.43;;
3293;SDS011;1659;51.470;6.770;2023-04-03T02:29:44;16.10;;;9.10;;
3293;SDS011;1659;51.470;6.770;2023-04-03T02:32:11;14.13;;;9.40;;
3293;SDS011;1659;51.470;6.770;2023-04-03T02:34:38;15.30;;;9.33;;
3293;SDS011;1659;51.470;6.770;2023-04-03T02:37:04;14.27;;;9.40;;
3293;SDS011;1659;51.470;6.770;2023-04-03T02:39:31;14.17;;;8.83;;
3293;SDS011;1659;51.470;6.770;2023-04-03T02:41:59;11.13;;;7.50;;
3293;SDS011;1659;51.470;6.770;2023-04-03T02:44:25;10.60;;;7.80;;
3293;SDS011;1659;51.470;6.770;2023-04-03T02:46:52;12.80;;;7.93;;
3293;SDS011;1659;51.470;6.770;2023-04-03T02:49:18;15.50;;;7.17;;
3293;SDS011;1659;51.470;6.770;2023-04-03T02:51:45;14.03;;;8.80;;
3293;SDS011;1659;51.470;6.770;2023-04-03T02:54:12;11.43;;;7.20;;
3293;SDS011;1659;51.470;6.770;2023-04-03T02:56:39;11.40;;;6.43;;
3293;SDS011;1659;51.470;6.770;2023-04-03T02:59:07;12.87;;;7.00;;
3293;SDS011;1659;51.470;6.770;2023-04-03T03:01:34;10.07;;;6.67;;
3293;SDS011;1659;51.470;6.770;2023-04-03T03:04:00;11.33;;;6.50;;
3293;SDS011;1659;51.470;6.770;2023-04-03T03:06:27;15.07;;;6.70;;
3293;SDS011;1659;51.470;6.770;2023-04-03T03:08:54;10.10;;;6.20;;
3293;SDS011;1659;51.470;6.770;2023-04-03T03:11:21;9.57;;;6.57;;
3293;SDS011;1659;51.470;6.770;2023-04-03T03:13:47;9.27;;;5.27;;
3293;SDS011;1659;51.470;6.770;2023-04-03T03:16:15;13.90;;;6.17;;
3293;SDS011;1659;51.470;6.770;2023-04-03T03:18:42;10.80;;;4.80;;
3293;SDS011;1659;51.470;6.770;2023-04-03T03:21:08;17.27;;;5.10;;
3293;SDS011;1659;51.470;6.770;2023-04-03T03:23:35;10.47;;;4.63;;
3293;SDS011;1659;51.470;6.770;2023-04-03T03:26:03;8.37;;;4.83;;
3293;SDS011;1659;51.470;6.770;2023-04-03T03:28:31;4.97;;;4.40;;
3293;SDS011;1659;51.470;6.770;2023-04-03T03:30:58;7.30;;;4.40;;
3293;SDS011;1659;51.470;6.770;2023-04-03T03:33:26;7.13;;;4.60;;
3293;SDS011;1659;51.470;6.770;2023-04-03T03:35:53;7.40;;;5.33;;
3293;SDS011;1659;51.470;6.770;2023-04-03T03:38:20;11.50;;;4.40;;
3293;SDS011;1659;51.470;6.770;2023-04-03T03:40:47;11.03;;;4.77;;
3293;SDS011;1659;51.470;6.770;2023-04-03T03:43:14;9.27;;;4.97;;
3293;SDS011;1659;51.470;6.770;2023-04-03T03:45:41;11.17;;;5.20;;
3293;SDS011;1659;51.470;6.770;2023-04-03T03:48:08;18.97;;;6.30;;
3293;SDS011;1659;51.470;6.770;2023-04-03T03:50:35;7.83;;;5.00;;
3293;SDS011;1659;51.470;6.770;2023-04-03T03:53:02;11.23;;;4.07;;
3293;SDS011;1659;51.470;6.770;2023-04-03T03:55:29;11.83;;;4.50;;
3293;SDS011;1659;51.470;6.770;2023-04-03T03:57:55;4.47;;;4.00;;
3293;SDS011;1659;51.470;6.770;2023-04-03T04:00:22;16.83;;;5.50;;
3293;SDS011;1659;51.470;6.770;2023-04-03T04:02:48;6.37;;;4.70;;
3293;SDS011;1659;51.470;6.770;2023-04-03T04:05:15;11.53;;;4.40;;
3293;SDS011;1659;51.470;6.770;2023-04-03T04:07:43;12.13;;;4.70;;
3293;SDS011;1659;51.470;6.770;2023-04-03T04:10:10;9.10;;;5.13;;
3293;SDS011;1659;51.470;6.770;2023-04-03T04:12:36;5.83;;;4.50;;
3293;SDS011;1659;51.470;6.770;2023-04-03T04:15:03;6.93;;;4.97;;
3293;SDS011;1659;51.470;6.770;2023-04-03T04:17:30;11.13;;;5.43;;
3293;SDS011;1659;51.470;6.770;2023-04-03T04:19:56;10.07;;;5.20;;
3293;SDS011;1659;51.470;6.770;2023-04-03T04:22:23;6.73;;;4.77;;
3293;SDS011;1659;51.470;6.770;2023-04-03T04:24:51;8.80;;;4.47;;
3293;SDS011;1659;51.470;6.770;2023-04-03T04:27:17;10.80;;;3.90;;
3293;SDS011;1659;51.470;6.770;2023-04-03T04:29:44;11.30;;;4.43;;
3293;SDS011;1659;51.470;6.770;2023-04-03T04:32:11;13.00;;;5.40;;
3293;SDS011;1659;51.470;6.770;2023-04-03T04:34:37;7.00;;;4.70;;
3293;SDS011;1659;51.470;6.770;2023-04-03T04:37:04;10.13;;;4.70;;
3293;SDS011;1659;51.470;6.770;2023-04-03T04:39:30;14.40;;;5.27;;
3293;SDS011;1659;51.470;6.770;2023-04-03T04:41:58;12.73;;;5.37;;
3293;SDS011;1659;51.470;6.770;2023-04-03T04:44:25;8.63;;;4.77;;
3293;SDS011;1659;51.470;6.770;2023-04-03T04:46:51;6.30;;;4.13;;
3293;SDS011;1659;51.470;6.770;2023-04-03T04:49:18;8.40;;;4.43;;
3293;SDS011;1659;51.470;6.770;2023-04-03T04:51:44;11.23;;;5.17;;
3293;SDS011;1659;51.470;6.770;2023-04-03T04:54:11;10.73;;;4.63;;
3293;SDS011;1659;51.470;6.770;2023-04-03T04:56:37;15.60;;;4.23;;
3293;SDS011;1659;51.470;6.770;2023-04-03T04:59:05;9.20;;;3.70;;
3293;SDS011;1659;51.470;6.770;2023-04-03T05:01:32;8.23;;;4.77;;
3293;SDS011;1659;51.470;6.770;2023-04-03T05:03:58;6.43;;;4.53;;
3293;SDS011;1659;51.470;6.770;2023-04-03T05:06:25;8.23;;;4.60;;
3293;SDS011;1659;51.470;6.770;2023-04-03T05:08:51;5.67;;;4.23;;
3293;SDS011;1659;51.470;6.770;2023-04-03T05:11:18;9.53;;;5.27;;
3293;SDS011;1659;51.470;6.770;2023-04-03T05:13:45;12.47;;;5.53;;
3293;SDS011;1659;51.470;6.770;2023-04-03T05:16:13;15.33;;;3.43;;
3293;SDS011;1659;51.470;6.770;2023-04-03T05:18:39;7.00;;;4.77;;
3293;SDS011;1659;51.470;6.770;2023-04-03T05:21:06;7.53;;;4.27;;
3293;SDS011;1659;51.470;6.770;2023-04-03T05:23:32;7.90;;;3.37;;
3293;SDS011;1659;51.470;6.770;2023-04-03T05:25:59;7.80;;;4.30;;
3293;SDS011;1659;51.470;6.770;2023-04-03T05:28:25;11.60;;;4.73;;
3293;SDS011;1659;51.470;6.770;2023-04-03T05:30:52;9.67;;;4.33;;
3293;SDS011;1659;51.470;6.770;2023-04-03T05:33:21;11.17;;;4.50;;
3293;SDS011;1659;51.470;6.770;2023-04-03T05:35:48;5.80;;;4.47;;
3293;SDS011;1659;51.470;6.770;2023-04-03T05:38:15;6.20;;;4.47;;
3293;SDS011;1659;51.470;6.770;2023-04-03T05:40:41;6.40;;;3.70;;
3293;SDS011;1659;51.470;6.770;2023-04-03T05:43:08;7.50;;;4.13;;
3293;SDS011;1659;51.470;6.770;2023-04-03T05:45:35;8.93;;;4.00;;
3293;SDS011;1659;51.470;6.770;2023-04-03T05:48:01;9.70;;;5.00;;
3293;SDS011;1659;51.470;6.770;2023-04-03T05:50:29;8.30;;;4.33;;
3293;SDS011;1659;51.470;6.770;2023-04-03T05:52:57;9.90;;;4.30;;
3293;SDS011;1659;51.470;6.770;2023-04-03T05:55:25;5.77;;;4.53;;
3293;SDS011;1659;51.470;6.770;2023-04-03T05:57:51;17.63;;;4.27;;
3293;SDS011;1659;51.470;6.770;2023-04-03T06:00:18;9.40;;;4.73;;
3293;SDS011;1659;51.470;6.770;2023-04-03T06:02:46;8.87;;;3.90;;
3293;SDS011;1659;51.470;6.770;2023-04-03T06:05:12;6.93;;;4.43;;
3293;SDS011;1659;51.470;6.770;2023-04-03T06:07:40;9.37;;;4.13;;
3293;SDS011;1659;51.470;6.770;2023-04-03T06:10:07;7.27;;;4.10;;
3293;SDS011;1659;51.470;6.770;2023-04-03T06:12:34;10.73;;;4.63;;
3293;SDS011;1659;51.470;6.770;2023-04-03T06:15:01;9.90;;;4.10;;
3293;SDS011;1659;51.470;6.770;2023-04-03T06:17:28;15.17;;;4.90;;
3293;SDS011;1659;51.470;6.770;2023-04-03T06:19:55;10.60;;;4.27;;
3293;SDS011;1659;51.470;6.770;2023-04-03T06:22:23;11.73;;;4.20;;
3293;SDS011;1659;51.470;6.770;2023-04-03T06:24:52;5.83;;;4.03;;
3293;SDS011;1659;51.470;6.770;2023-04-03T06:27:18;4.43;;;4.03;;
3293;SDS011;1659;51.470;6.770;2023-04-03T06:29:45;5.93;;;4.40;;
3293;SDS011;1659;51.470;6.770;2023-04-03T06:32:11;9.10;;;4.63;;
3293;SDS011;1659;51.470;6.770;2023-04-03T06:34:38;13.20;;;4.47;;
3293;SDS011;1659;51.470;6.770;2023-04-03T06:37:05;6.97;;;4.23;;
3293;SDS011;1659;51.470;6.770;2023-04-03T06:39:31;8.37;;;4.20;;
3293;SDS011;1659;51.470;6.770;2023-04-03T06:41:59;10.43;;;6.03;;
3293;SDS011;1659;51.470;6.770;2023-04-03T06:44:26;9.63;;;3.90;;
3293;SDS011;1659;51.470;6.770;2023-04-03T06:46:52;7.60;;;5.03;;
3293;SDS011;1659;51.470;6.770;2023-04-03T06:49:19;13.83;;;4.40;;
3293;SDS011;1659;51.470;6.770;2023-04-03T06:51:46;10.43;;;4.20;;
3293;SDS011;1659;51.470;6.770;2023-04-03T06:54:13;5.90;;;3.73;;
3293;SDS011;1659;51.470;6.770;2023-04-03T06:56:39;8.17;;;3.60;;
3293;SDS011;1659;51.470;6.770;2023-04-03T06:59:09;7.00;;;4.20;;
3293;SDS011;1659;51.470;6.770;2023-04-03T07:01:36;7.07;;;4.20;;
3293;SDS011;1659;51.470;6.770;2023-04-03T07:04:03;9.13;;;4.10;;
3293;SDS011;1659;51.470;6.770;2023-04-03T07:06:30;10.13;;;4.40;;
3293;SDS011;1659;51.470;6.770;2023-04-03T07:08:58;13.77;;;4.70;;
3293;SDS011;1659;51.470;6.770;2023-04-03T07:11:25;5.17;;;4.40;;
3293;SDS011;1659;51.470;6.770;2023-04-03T07:13:52;12.53;;;5.13;;
3293;SDS011;1659;51.470;6.770;2023-04-03T07:16:20;8.13;;;4.43;;
3293;SDS011;1659;51.470;6.770;2023-04-03T07:18:47;7.43;;;4.33;;
3293;SDS011;1659;51.470;6.770;2023-04-03T07:21:13;13.03;;;4.37;;
3293;SDS011;1659;51.470;6.770;2023-04-03T07:23:40;10.03;;;6.20;;
3293;SDS011;1659;51.470;6.770;2023-04-03T07:26:07;12.10;;;5.20;;
3293;SDS011;1659;51.470;6.770;2023-04-03T07:28:34;7.07;;;4.00;;
3293;SDS011;1659;51.470;6.770;2023-04-03T07:31:02;8.53;;;4.57;;
3293;SDS011;1659;51.470;6.770;2023-04-03T07:33:32;7.03;;;4.73;;
3293;SDS011;1659;51.470;6.770;2023-04-03T07:35:59;9.50;;;4.20;;
3293;SDS011;1659;51.470;6.770;2023-04-03T07:38:26;6.17;;;3.70;;
3293;SDS011;1659;51.470;6.770;2023-04-03T07:40:53;6.10;;;4.10;;
3293;SDS011;1659;51.470;6.770;2023-04-03T07:43:19;6.60;;;4.03;;
3293;SDS011;1659;51.470;6.770;2023-04-03T07:45:47;9.90;;;4.33;;
3293;SDS011;1659;51.470;6.770;2023-04-03T07:48:15;6.80;;;3.90;;
3293;SDS011;1659;51.470;6.770;2023-04-03T07:50:44;6.20;;;3.20;;
3293;SDS011;1659;51.470;6.770;2023-04-03T07:53:11;12.30;;;5.70;;
3293;SDS011;1659;51.470;6.770;2023-04-03T07:55:37;6.00;;;3.70;;
3293;SDS011;1659;51.470;6.770;2023-04-03T07:58:08;7.23;;;4.10;;
3293;SDS011;1659;51.470;6.770;2023-04-03T08:00:35;4.67;;;3.37;;
3293;SDS011;1659;51.470;6.770;2023-04-03T08:03:02;6.60;;;3.30;;
3293;SDS011;1659;51.470;6.770;2023-04-03T08:05:29;5.80;;;3.57;;
3293;SDS011;1659;51.470;6.770;2023-04-03T08:07:57;9.47;;;3.90;;
3293;SDS011;1659;51.470;6.770;2023-04-03T08:10:24;4.60;;;3.10;;
3293;SDS011;1659;51.470;6.770;2023-04-03T08:12:50;4.77;;;3.40;;
3293;SDS011;1659;51.470;6.770;2023-04-03T08:15:17;8.30;;;4.30;;
3293;SDS011;1659;51.470;6.770;2023-04-03T08:17:43;4.50;;;3.50;;
3293;SDS011;1659;51.470;6.770;2023-04-03T08:20:10;6.80;;;3.43;;
3293;SDS011;1659;51.470;6.770;2023-04-03T08:22:37;4.27;;;3.10;;
3293;SDS011;1659;51.470;6.770;2023-04-03T08:25:06;6.10;;;3.53;;
3293;SDS011;1659;51.470;6.770;2023-04-03T08:27:34;4.67;;;3.50;;
3293;SDS011;1659;51.470;6.770;2023-04-03T08:30:00;4.07;;;3.20;;
3293;SDS011;1659;51.470;6.770;2023-04-03T08:32:27;4.53;;;3.40;;
3293;SDS011;1659;51.470;6.770;2023-04-03T08:34:54;5.33;;;3.20;;
3293;SDS011;1659;51.470;6.770;2023-04-03T08:37:21;4.63;;;3.00;;
3293;SDS011;1659;51.470;6.770;2023-04-03T08:39:47;4.87;;;2.87;;
3293;SDS011;1659;51.470;6.770;2023-04-03T08:42:16;4.87;;;2.80;;
3293;SDS011;1659;51.470;6.770;2023-04-03T08:44:51;5.33;;;3.37;;
3293;SDS011;1659;51.470;6.770;2023-04-03T08:47:24;4.43;;;3.07;;
3293;SDS011;1659;51.470;6.770;2023-04-03T08:49:55;6.00;;;3.70;;
3293;SDS011;1659;51.470;6.770;2023-04-03T08:52:27;3.40;;;2.77;;
3293;SDS011;1659;51.470;6.770;2023-04-03T08:55:00;7.33;;;3.07;;
3293;SDS011;1659;51.470;6.770;2023-04-03T08:57:32;5.93;;;2.73;;
3293;SDS011;1659;51.470;6.770;2023-04-03T09:00:06;6.33;;;3.50;;
3293;SDS011;1659;51.470;6.770;2023-04-03T09:02:42;3.37;;;2.67;;
3293;SDS011;1659;51.470;6.770;2023-04-03T09:05:12;4.30;;;2.83;;
3293;SDS011;1659;51.470;6.770;2023-04-03T09:07:43;3.53;;;2.47;;
3293;SDS011;1659;51.470;6.770;2023-04-03T09:10:12;4.77;;;2.47;;
3293;SDS011;1659;51.470;6.770;2023-04-03T09:12:52;5.13;;;3.00;;
3293;SDS011;1659;51.470;6.770;2023-04-03T09:15:26;7.73;;;3.13;;
3293;SDS011;1659;51.470;6.770;2023-04-03T09:17:55;2.77;;;2.57;;
3293;SDS011;1659;51.470;6.770;2023-04-03T09:20:31;3.33;;;2.57;;
3293;SDS011;1659;51.470;6.770;2023-04-03T09:23:11;3.73;;;2.30;;
3293;SDS011;1659;51.470;6.770;2023-04-03T09:25:44;3.43;;;2.30;;
3293;SDS011;1659;51.470;6.770;2023-04-03T09:28:13;6.13;;;2.83;;
3293;SDS011;1659;51.470;6.770;2023-04-03T09:30:39;3.80;;;2.37;;
3293;SDS011;1659;51.470;6.770;2023-04-03T09:33:06;5.50;;;3.20;;
3293;SDS011;1659;51.470;6.770;2023-04-03T09:35:33;3.60;;;1.97;;
3293;SDS011;1659;51.470;6.770;2023-04-03T09:38:13;2.80;;;2.10;;
3293;SDS011;1659;51.470;6.770;2023-04-03T09:40:42;2.30;;;2.07;;
3293;SDS011;1659;51.470;6.770;2023-04-03T09:43:24;6.50;;;2.30;;
3293;SDS011;1659;51.470;6.770;2023-04-03T09:45:52;3.00;;;2.37;;
3293;SDS011;1659;51.470;6.770;2023-04-03T09:48:19;3.47;;;2.10;;
3293;SDS011;1659;51.470;6.770;2023-04-03T09:50:55;2.17;;;1.97;;
3293;SDS011;1659;51.470;6.770;2023-04-03T09:53:26;3.40;;;2.00;;
3293;SDS011;1659;51.470;6.770;2023-04-03T09:55:57;4.20;;;2.47;;
3293;SDS011;1659;51.470;6.770;2023-04-03T09:58:27;2.70;;;1.80;;
3293;SDS011;1659;51.470;6.770;2023-04-03T10:00:55;3.47;;;1.80;;
3293;SDS011;1659;51.470;6.770;2023-04-03T10:03:25;3.73;;;1.53;;
3293;SDS011;1659;51.470;6.770;2023-04-03T10:05:55;3.43;;;1.90;;
3293;SDS011;1659;51.470;6.770;2023-04-03T10:08:24;2.90;;;1.70;;
3293;SDS011;1659;51.470;6.770;2023-04-03T10:11:05;5.10;;;1.50;;
3293;SDS011;1659;51.470;6.770;2023-04-03T10:13:50;5.53;;;2.20;;
3293;SDS011;1659;51.470;6.770;2023-04-03T10:16:18;2.97;;;1.40;;
3293;SDS011;1659;51.470;6.770;2023-04-03T10:18:49;3.57;;;1.33;;
3293;SDS011;1659;51.470;6.770;2023-04-03T10:21:27;2.20;;;1.20;;
3293;SDS011;1659;51.470;6.770;2023-04-03T10:24:03;2.90;;;1.43;;
3293;SDS011;1659;51.470;6.770;2023-04-03T10:26:38;2.67;;;1.70;;
3293;SDS011;1659;51.470;6.770;2023-04-03T10:29:15;6.57;;;2.70;;
3293;SDS011;1659;51.470;6.770;2023-04-03T10:31:53;3.47;;;2.80;;
3293;SDS011;1659;51.470;6.770;2023-04-03T10:34:27;4.30;;;1.93;;
3293;SDS011;1659;51.470;6.770;2023-04-03T10:37:00;5.60;;;1.70;;
3293;SDS011;1659;51.470;6.770;2023-04-03T10:39:33;7.27;;;2.60;;
3293;SDS011;1659;51.470;6.770;2023-04-03T10:42:08;5.00;;;2.17;;
3293;SDS011;1659;51.470;6.770;2023-04-03T10:44:46;3.47;;;1.87;;
3293;SDS011;1659;51.470;6.770;2023-04-03T10:47:24;8.03;;;2.30;;
3293;SDS011;1659;51.470;6.770;2023-04-03T10:50:00;4.50;;;2.33;;
3293;SDS011;1659;51.470;6.770;2023-04-03T10:52:39;2.90;;;1.50;;
3293;SDS011;1659;51.470;6.770;2023-04-03T10:55:17;1.60;;;1.50;;
3293;SDS011;1659;51.470;6.770;2023-04-03T10:57:56;2.30;;;2.10;;
3293;SDS011;1659;51.470;6.770;2023-04-03T11:00:29;3.17;;;1.80;;
3293;SDS011;1659;51.470;6.770;2023-04-03T11:03:01;4.93;;;2.07;;
3293;SDS011;1659;51.470;6.770;2023-04-03T11:05:32;5.20;;;2.10;;
3293;SDS011;1659;51.470;6.770;2023-04-03T11:08:04;1.80;;;1.70;;
3293;SDS011;1659;51.470;6.770;2023-04-03T11:10:37;2.20;;;2.00;;
3293;SDS011;1659;51.470;6.770;2023-04-03T11:13:11;4.40;;;2.07;;
3293;SDS011;1659;51.470;6.770;2023-04-03T11:15:42;3.43;;;1.90;;
3293;SDS011;1659;51.470;6.770;2023-04-03T11:18:10;4.77;;;2.50;;
3293;SDS011;1659;51.470;6.770;2023-04-03T11:20:41;2.30;;;2.10;;
3293;SDS011;1659;51.470;6.770;2023-04-03T11:23:15;4.60;;;1.90;;
3293;SDS011;1659;51.470;6.770;2023-04-03T11:25:47;5.10;;;1.90;;
3293;SDS011;1659;51.470;6.770;2023-04-03T11:28:18;6.83;;;2.50;;
3293;SDS011;1659;51.470;6.770;2023-04-03T11:30:49;3.03;;;1.70;;
3293;SDS011;1659;51.470;6.770;2023-04-03T11:33:28;2.40;;;2.20;;
3293;SDS011;1659;51.470;6.770;2023-04-03T11:36:03;2.77;;;1.93;;
3293;SDS011;1659;51.470;6.770;2023-04-03T11:38:36;3.73;;;2.13;;
3293;SDS011;1659;51.470;6.770;2023-04-03T11:41:08;5.50;;;2.37;;
3293;SDS011;1659;51.470;6.770;2023-04-03T11:43:40;3.53;;;2.00;;
3293;SDS011;1659;51.470;6.770;2023-04-03T11:46:09;4.93;;;2.27;;
3293;SDS011;1659;51.470;6.770;2023-04-03T11:48:47;4.83;;;2.37;;
3293;SDS011;1659;51.470;6.770;2023-04-03T12:12:55;3.60;;;2.20;;
3293;SDS011;1659;51.470;6.770;2023-04-03T12:18:31;2.50;;;2.00;;
3293;SDS011;1659;51.470;6.770;2023-04-03T12:21:07;6.03;;;1.87;;
3293;SDS011;1659;51.470;6.770;2023-04-03T12:23:34;3.87;;;1.70;;
3293;SDS011;1659;51.470;6.770;2023-04-03T12:26:06;2.20;;;1.70;;
3293;SDS011;1659;51.470;6.770;2023-04-03T12:28:47;1.90;;;1.80;;
3293;SDS011;1659;51.470;6.770;2023-04-03T12:31:15;2.70;;;1.90;;
3293;SDS011;1659;51.470;6.770;2023-04-03T12:33:57;4.23;;;2.10;;
3293;SDS011;1659;51.470;6.770;2023-04-03T12:36:42;1.77;;;1.67;;
3293;SDS011;1659;51.470;6.770;2023-04-03T12:39:36;3.70;;;1.90;;
3293;SDS011;1659;51.470;6.770;2023-04-03T12:42:25;2.50;;;2.30;;
3293;SDS011;1659;51.470;6.770;2023-04-03T12:45:09;1.80;;;1.70;;
3293;SDS011;1659;51.470;6.770;2023-04-03T12:47:43;1.97;;;1.80;;
3293;SDS011;1659;51.470;6.770;2023-04-03T12:50:16;4.50;;;2.37;;
3293;SDS011;1659;51.470;6.770;2023-04-03T12:52:49;1.80;;;1.70;;
3293;SDS011;1659;51.470;6.770;2023-04-03T12:55:21;3.57;;;1.97;;
3293;SDS011;1659;51.470;6.770;2023-04-03T12:57:49;3.07;;;2.37;;
3293;SDS011;1659;51.470;6.770;2023-04-03T13:00:20;3.87;;;2.07;;
3293;SDS011;1659;51.470;6.770;2023-04-03T13:02:52;3.13;;;1.97;;
3293;SDS011;1659;51.470;6.770;2023-04-03T13:05:19;4.20;;;2.13;;
3293;SDS011;1659;51.470;6.770;2023-04-03T13:07:48;6.13;;;2.13;;
3293;SDS011;1659;51.470;6.770;2023-04-03T13:10:17;4.53;;;2.60;;
3293;SDS011;1659;51.470;6.770;2023-04-03T13:12:45;5.00;;;1.77;;
3293;SDS011;1659;51.470;6.770;2023-04-03T13:15:17;2.33;;;2.13;;
3293;SDS011;1659;51.470;6.770;2023-04-03T13:17:44;2.33;;;1.77;;
3293;SDS011;1659;51.470;6.770;2023-04-03T13:20:14;1.93;;;1.83;;
3293;SDS011;1659;51.470;6.770;2023-04-03T13:22:47;2.90;;;1.80;;
3293;SDS011;1659;51.470;6.770;2023-04-03T13:25:19;1.70;;;1.60;;
3293;SDS011;1659;51.470;6.770;2023-04-03T13:27:48;3.53;;;2.57;;
3293;SDS011;1659;51.470;6.770;2023-04-03T13:30:21;2.17;;;2.07;;
3293;SDS011;1659;51.470;6.770;2023-04-03T13:32:54;4.83;;;2.57;;
3293;SDS011;1659;51.470;6.770;2023-04-03T13:35:30;5.93;;;2.87;;
3293;SDS011;1659;51.470;6.770;2023-04-03T13:38:01;2.53;;;1.90;;
3293;SDS011;1659;51.470;6.770;2023-04-03T13:40:31;2.50;;;2.30;;
3293;SDS011;1659;51.470;6.770;2023-04-03T13:42:58;2.67;;;2.37;;
3293;SDS011;1659;51.470;6.770;2023-04-03T13:45:28;2.43;;;2.10;;
3293;SDS011;1659;51.470;6.770;2023-04-03T13:48:06;2.97;;;2.40;;
3293;SDS011;1659;51.470;6.770;2023-04-03T13:50:49;6.70;;;4.67;;
3293;SDS011;1659;51.470;6.770;2023-04-03T13:53:18;11.60;;;3.80;;
3293;SDS011;1659;51.470;6.770;2023-04-03T13:56:04;2.93;;;2.67;;
3293;SDS011;1659;51.470;6.770;2023-04-03T13:58:33;4.37;;;3.20;;
3293;SDS011;1659;51.470;6.770;2023-04-03T14:01:06;6.40;;;3.10;;
3293;SDS011;1659;51.470;6.770;2023-04-03T14:03:39;5.83;;;2.60;;
3293;SDS011;1659;51.470;6.770;2023-04-03T14:06:10;6.53;;;1.97;;
3293;SDS011;1659;51.470;6.770;2023-04-03T14:08:38;4.30;;;2.67;;
3293;SDS011;1659;51.470;6.770;2023-04-03T14:11:06;2.00;;;1.90;;
3293;SDS011;1659;51.470;6.770;2023-04-03T14:13:38;1.70;;;1.60;;
3293;SDS011;1659;51.470;6.770;2023-04-03T14:16:06;3.87;;;2.40;;
3293;SDS011;1659;51.470;6.770;2023-04-03T14:18:33;7.53;;;2.20;;
3293;SDS011;1659;51.470;6.770;2023-04-03T14:21:01;2.77;;;2.33;;
3293;SDS011;1659;51.470;6.770;2023-04-03T14:23:28;7.50;;;2.30;;
3293;SDS011;1659;51.470;6.770;2023-04-03T14:25:56;2.50;;;2.20;;
3293;SDS011;1659;51.470;6.770;2023-04-03T14:28:23;3.30;;;2.13;;
3293;SDS011;1659;51.470;6.770;2023-04-03T14:30:50;4.77;;;1.70;;
3293;SDS011;1659;51.470;6.770;2023-04-03T14:33:20;5.70;;;2.17;;
3293;SDS011;1659;51.470;6.770;2023-04-03T14:35:47;2.80;;;2.07;;
3293;SDS011;1659;51.470;6.770;2023-04-03T14:38:20;2.50;;;1.87;;
3293;SDS011;1659;51.470;6.770;2023-04-03T14:40:49;2.40;;;2.03;;
3293;SDS011;1659;51.470;6.770;2023-04-03T14:43:16;3.90;;;2.37;;
3293;SDS011;1659;51.470;6.770;2023-04-03T14:45:43;3.07;;;2.00;;
3293;SDS011;1659;51.470;6.770;2023-04-03T14:48:10;4.27;;;2.30;;
3293;SDS011;1659;51.470;6.770;2023-04-03T14:50:45;4.97;;;2.57;;
3293;SDS011;1659;51.470;6.770;2023-04-03T14:53:12;3.63;;;2.70;;
3293;SDS011;1659;51.470;6.770;2023-04-03T14:55:40;4.00;;;1.70;;
3293;SDS011;1659;51.470;6.770;2023-04-03T14:58:11;6.37;;;2.20;;
3293;SDS011;1659;51.470;6.770;2023-04-03T15:00:39;3.90;;;2.20;;
3293;SDS011;1659;51.470;6.770;2023-04-03T15:03:06;6.70;;;2.40;;
3293;SDS011;1659;51.470;6.770;2023-04-03T15:05:35;3.20;;;2.70;;
3293;SDS011;1659;51.470;6.770;2023-04-03T15:08:04;14.37;;;6.57;;
3293;SDS011;1659;51.470;6.770;2023-04-03T15:10:30;3.00;;;2.20;;
3293;SDS011;1659;51.470;6.770;2023-04-03T15:12:57;10.67;;;5.10;;
3293;SDS011;1659;51.470;6.770;2023-04-03T15:15:27;3.03;;;1.80;;
3293;SDS011;1659;51.470;6.770;2023-04-03T15:17:55;3.50;;;2.60;;
3293;SDS011;1659;51.470;6.770;2023-04-03T15:20:23;2.67;;;2.10;;
3293;SDS011;1659;51.470;6.770;2023-04-03T15:22:51;2.60;;;2.07;;
3293;SDS011;1659;51.470;6.770;2023-04-03T15:25:19;6.17;;;2.43;;
3293;SDS011;1659;51.470;6.770;2023-04-03T15:27:46;3.83;;;2.00;;
3293;SDS011;1659;51.470;6.770;2023-04-03T15:30:13;4.07;;;2.50;;
3293;SDS011;1659;51.470;6.770;2023-04-03T15:32:41;2.90;;;2.60;;
3293;SDS011;1659;51.470;6.770;2023-04-03T15:35:08;6.77;;;4.50;;
3293;SDS011;1659;51.470;6.770;2023-04-03T15:37:35;7.27;;;4.17;;
3293;SDS011;1659;51.470;6.770;2023-04-03T15:40:02;3.17;;;2.90;;
3293;SDS011;1659;51.470;6.770;2023-04-03T15:42:30;7.23;;;3.10;;
3293;SDS011;1659;51.470;6.770;2023-04-03T15:44:57;3.47;;;2.40;;